sensor_id;sensor_type;location;lat;lon;timestamp;P1;durP1;ratioP1;P2;durP2;ratioP2
14076;SDS011;7114;51.100;13.998;2022-11-10T00:00:04;18.63;;;8.05;;
14076;SDS011;7114;51.100;13.998;2022-11-10T00:02:32;19.48;;;8.57;;
14076;SDS011;7114;51.100;13.998;2022-11-10T00:04:59;18.30;;;8.40;;
14076;SDS011;7114;51.100;13.998;2022-11-10T00:07:25;19.63;;;8.13;;
14076;SDS011;7114;51.100;13.998;2022-11-10T00:09:52;18.02;;;8.05;;
14076;SDS011;7114;51.100;13.998;2022-11-10T00:12:20;20.40;;;7.57;;
14076;SDS011;7114;51.100;13.998;2022-11-10T00:14:46;19.08;;;7.78;;
14076;SDS011;7114;51.100;13.998;2022-11-10T00:17:30;17.53;;;7.47;;
14076;SDS011;7114;51.100;13.998;2022-11-10T00:19:56;17.85;;;8.25;;
14076;SDS011;7114;51.100;13.998;2022-11-10T00:22:23;17.50;;;7.68;;
14076;SDS011;7114;51.100;13.998;2022-11-10T00:24:49;16.33;;;7.20;;
14076;SDS011;7114;51.100;13.998;2022-11-10T00:27:15;19.98;;;7.93;;
14076;SDS011;7114;51.100;13.998;2022-11-10T00:29:43;17.33;;;7.23;;
14076;SDS011;7114;51.100;13.998;2022-11-10T00:32:09;17.48;;;7.50;;
14076;SDS011;7114;51.100;13.998;2022-11-10T00:34:35;17.60;;;8.02;;
14076;SDS011;7114;51.100;13.998;2022-11-10T00:37:01;17.55;;;6.70;;
14076;SDS011;7114;51.100;13.998;2022-11-10T00:39:28;18.25;;;6.80;;
14076;SDS011;7114;51.100;13.998;2022-11-10T00:41:54;15.80;;;6.50;;
14076;SDS011;7114;51.100;13.998;2022-11-10T00:44:20;15.93;;;6.55;;
14076;SDS011;7114;51.100;13.998;2022-11-10T00:46:48;16.77;;;6.70;;
14076;SDS011;7114;51.100;13.998;2022-11-10T00:49:14;15.70;;;6.38;;
14076;SDS011;7114;51.100;13.998;2022-11-10T00:51:40;14.20;;;5.82;;
14076;SDS011;7114;51.100;13.998;2022-11-10T00:54:06;14.40;;;6.17;;
14076;SDS011;7114;51.100;13.998;2022-11-10T00:56:33;14.60;;;5.60;;
14076;SDS011;7114;51.100;13.998;2022-11-10T00:58:59;13.40;;;5.18;;
14076;SDS011;7114;51.100;13.998;2022-11-10T01:01:25;12.43;;;4.45;;
14076;SDS011;7114;51.100;13.998;2022-11-10T01:03:53;11.90;;;4.50;;
14076;SDS011;7114;51.100;13.998;2022-11-10T01:06:20;11.90;;;4.47;;
14076;SDS011;7114;51.100;13.998;2022-11-10T01:08:46;11.65;;;3.97;;
14076;SDS011;7114;51.100;13.998;2022-11-10T01:11:14;11.15;;;4.15;;
14076;SDS011;7114;51.100;13.998;2022-11-10T01:13:40;9.27;;;3.55;;
14076;SDS011;7114;51.100;13.998;2022-11-10T01:16:08;10.52;;;3.25;;
14076;SDS011;7114;51.100;13.998;2022-11-10T01:18:34;9.77;;;3.50;;
14076;SDS011;7114;51.100;13.998;2022-11-10T01:21:02;11.20;;;3.70;;
14076;SDS011;7114;51.100;13.998;2022-11-10T01:23:29;10.27;;;3.35;;
14076;SDS011;7114;51.100;13.998;2022-11-10T01:25:55;8.93;;;3.00;;
14076;SDS011;7114;51.100;13.998;2022-11-10T01:28:22;10.70;;;3.63;;
14076;SDS011;7114;51.100;13.998;2022-11-10T01:30:48;9.87;;;3.40;;
14076;SDS011;7114;51.100;13.998;2022-11-10T01:33:14;10.23;;;3.00;;
14076;SDS011;7114;51.100;13.998;2022-11-10T01:35:41;10.15;;;3.17;;
14076;SDS011;7114;51.100;13.998;2022-11-10T01:38:09;10.70;;;3.60;;
14076;SDS011;7114;51.100;13.998;2022-11-10T01:40:35;10.43;;;3.38;;
14076;SDS011;7114;51.100;13.998;2022-11-10T01:43:01;11.03;;;4.10;;
14076;SDS011;7114;51.100;13.998;2022-11-10T01:45:38;11.23;;;3.95;;
14076;SDS011;7114;51.100;13.998;2022-11-10T01:48:06;12.20;;;4.30;;
14076;SDS011;7114;51.100;13.998;2022-11-10T01:50:36;13.38;;;5.18;;
14076;SDS011;7114;51.100;13.998;2022-11-10T01:53:04;13.77;;;5.47;;
14076;SDS011;7114;51.100;13.998;2022-11-10T01:55:32;14.10;;;5.47;;
14076;SDS011;7114;51.100;13.998;2022-11-10T01:57:59;15.20;;;5.90;;
14076;SDS011;7114;51.100;13.998;2022-11-10T02:00:25;15.85;;;5.85;;
14076;SDS011;7114;51.100;13.998;2022-11-10T02:02:53;12.82;;;4.47;;
14076;SDS011;7114;51.100;13.998;2022-11-10T02:05:22;16.20;;;6.03;;
14076;SDS011;7114;51.100;13.998;2022-11-10T02:07:48;12.33;;;3.87;;
14076;SDS011;7114;51.100;13.998;2022-11-10T02:10:15;10.27;;;3.95;;
14076;SDS011;7114;51.100;13.998;2022-11-10T02:12:43;9.50;;;3.22;;
14076;SDS011;7114;51.100;13.998;2022-11-10T02:15:10;8.90;;;2.53;;
14076;SDS011;7114;51.100;13.998;2022-11-10T02:17:37;9.95;;;3.05;;
14076;SDS011;7114;51.100;13.998;2022-11-10T02:20:05;9.10;;;2.43;;
14076;SDS011;7114;51.100;13.998;2022-11-10T02:22:33;7.85;;;2.17;;
14076;SDS011;7114;51.100;13.998;2022-11-10T02:24:59;9.15;;;2.00;;
14076;SDS011;7114;51.100;13.998;2022-11-10T02:27:25;7.13;;;2.15;;
14076;SDS011;7114;51.100;13.998;2022-11-10T02:29:52;9.18;;;1.90;;
14076;SDS011;7114;51.100;13.998;2022-11-10T02:32:18;7.60;;;2.10;;
14076;SDS011;7114;51.100;13.998;2022-11-10T02:34:44;9.30;;;1.98;;
14076;SDS011;7114;51.100;13.998;2022-11-10T02:37:11;9.02;;;1.80;;
14076;SDS011;7114;51.100;13.998;2022-11-10T02:39:38;8.60;;;1.80;;
14076;SDS011;7114;51.100;13.998;2022-11-10T02:42:04;9.38;;;1.90;;
14076;SDS011;7114;51.100;13.998;2022-11-10T02:44:34;7.80;;;1.93;;
14076;SDS011;7114;51.100;13.998;2022-11-10T02:47:00;8.48;;;2.03;;
14076;SDS011;7114;51.100;13.998;2022-11-10T02:49:27;8.95;;;2.15;;
14076;SDS011;7114;51.100;13.998;2022-11-10T02:51:53;8.95;;;2.05;;
14076;SDS011;7114;51.100;13.998;2022-11-10T02:54:20;9.00;;;1.85;;
14076;SDS011;7114;51.100;13.998;2022-11-10T02:56:47;8.50;;;2.00;;
14076;SDS011;7114;51.100;13.998;2022-11-10T02:59:14;7.15;;;1.70;;
14076;SDS011;7114;51.100;13.998;2022-11-10T03:01:40;7.70;;;2.20;;
14076;SDS011;7114;51.100;13.998;2022-11-10T03:04:06;7.43;;;1.70;;
14076;SDS011;7114;51.100;13.998;2022-11-10T03:06:32;6.60;;;1.55;;
14076;SDS011;7114;51.100;13.998;2022-11-10T03:08:59;7.70;;;1.30;;
14076;SDS011;7114;51.100;13.998;2022-11-10T03:11:25;7.07;;;1.40;;
14076;SDS011;7114;51.100;13.998;2022-11-10T03:13:53;7.47;;;1.50;;
14076;SDS011;7114;51.100;13.998;2022-11-10T03:16:19;7.75;;;1.20;;
14076;SDS011;7114;51.100;13.998;2022-11-10T03:18:45;8.35;;;1.40;;
14076;SDS011;7114;51.100;13.998;2022-11-10T03:21:11;7.30;;;1.30;;
14076;SDS011;7114;51.100;13.998;2022-11-10T03:23:38;6.18;;;1.35;;
14076;SDS011;7114;51.100;13.998;2022-11-10T03:26:04;7.22;;;1.50;;
14076;SDS011;7114;51.100;13.998;2022-11-10T03:28:31;7.47;;;1.45;;
14076;SDS011;7114;51.100;13.998;2022-11-10T03:30:58;5.30;;;1.25;;
14076;SDS011;7114;51.100;13.998;2022-11-10T03:33:24;7.83;;;1.33;;
14076;SDS011;7114;51.100;13.998;2022-11-10T03:35:51;8.35;;;1.23;;
14076;SDS011;7114;51.100;13.998;2022-11-10T03:38:17;7.90;;;1.63;;
14076;SDS011;7114;51.100;13.998;2022-11-10T03:40:44;6.47;;;1.00;;
14076;SDS011;7114;51.100;13.998;2022-11-10T03:43:10;7.70;;;1.20;;
14076;SDS011;7114;51.100;13.998;2022-11-10T03:45:36;8.33;;;1.30;;
14076;SDS011;7114;51.100;13.998;2022-11-10T03:48:04;6.45;;;1.25;;
14076;SDS011;7114;51.100;13.998;2022-11-10T03:50:30;8.30;;;1.20;;
14076;SDS011;7114;51.100;13.998;2022-11-10T03:52:57;5.15;;;1.00;;
14076;SDS011;7114;51.100;13.998;2022-11-10T03:55:23;8.60;;;1.30;;
14076;SDS011;7114;51.100;13.998;2022-11-10T03:57:49;7.50;;;1.30;;
14076;SDS011;7114;51.100;13.998;2022-11-10T04:00:15;5.78;;;1.13;;
14076;SDS011;7114;51.100;13.998;2022-11-10T04:02:42;7.93;;;1.25;;
14076;SDS011;7114;51.100;13.998;2022-11-10T04:05:09;8.18;;;1.05;;
14076;SDS011;7114;51.100;13.998;2022-11-10T04:07:57;5.28;;;0.93;;
14076;SDS011;7114;51.100;13.998;2022-11-10T04:10:41;6.70;;;1.10;;
14076;SDS011;7114;51.100;13.998;2022-11-10T04:13:07;5.85;;;1.17;;
14076;SDS011;7114;51.100;13.998;2022-11-10T04:15:51;5.95;;;1.00;;
14076;SDS011;7114;51.100;13.998;2022-11-10T04:18:17;6.65;;;1.10;;
14076;SDS011;7114;51.100;13.998;2022-11-10T04:20:50;6.32;;;1.00;;
14076;SDS011;7114;51.100;13.998;2022-11-10T04:23:16;7.50;;;1.30;;
14076;SDS011;7114;51.100;13.998;2022-11-10T04:25:51;7.63;;;1.10;;
14076;SDS011;7114;51.100;13.998;2022-11-10T04:28:31;5.80;;;0.98;;
14076;SDS011;7114;51.100;13.998;2022-11-10T04:30:58;7.25;;;1.00;;
14076;SDS011;7114;51.100;13.998;2022-11-10T04:33:24;7.05;;;1.15;;
14076;SDS011;7114;51.100;13.998;2022-11-10T04:35:51;10.07;;;1.30;;
14076;SDS011;7114;51.100;13.998;2022-11-10T04:38:18;7.45;;;1.15;;
14076;SDS011;7114;51.100;13.998;2022-11-10T04:40:44;8.52;;;1.10;;
14076;SDS011;7114;51.100;13.998;2022-11-10T04:43:10;8.43;;;1.42;;
14076;SDS011;7114;51.100;13.998;2022-11-10T04:45:36;6.05;;;1.30;;
14076;SDS011;7114;51.100;13.998;2022-11-10T04:48:03;9.87;;;1.30;;
14076;SDS011;7114;51.100;13.998;2022-11-10T04:50:29;9.05;;;1.50;;
14076;SDS011;7114;51.100;13.998;2022-11-10T04:52:56;6.78;;;1.30;;
14076;SDS011;7114;51.100;13.998;2022-11-10T04:55:23;9.15;;;1.42;;
14076;SDS011;7114;51.100;13.998;2022-11-10T04:57:49;7.00;;;1.25;;
14076;SDS011;7114;51.100;13.998;2022-11-10T05:00:15;6.07;;;1.10;;
14076;SDS011;7114;51.100;13.998;2022-11-10T05:02:42;6.15;;;1.10;;
14076;SDS011;7114;51.100;13.998;2022-11-10T05:05:08;7.72;;;1.27;;
14076;SDS011;7114;51.100;13.998;2022-11-10T05:07:35;6.80;;;1.27;;
14076;SDS011;7114;51.100;13.998;2022-11-10T05:10:03;7.75;;;1.05;;
14076;SDS011;7114;51.100;13.998;2022-11-10T05:12:29;5.97;;;1.40;;
14076;SDS011;7114;51.100;13.998;2022-11-10T05:14:56;6.55;;;1.20;;
14076;SDS011;7114;51.100;13.998;2022-11-10T05:17:22;6.72;;;1.13;;
14076;SDS011;7114;51.100;13.998;2022-11-10T05:19:48;5.57;;;1.17;;
14076;SDS011;7114;51.100;13.998;2022-11-10T05:22:14;5.50;;;1.10;;
14076;SDS011;7114;51.100;13.998;2022-11-10T05:24:40;6.37;;;1.00;;
14076;SDS011;7114;51.100;13.998;2022-11-10T05:27:08;8.48;;;1.27;;
14076;SDS011;7114;51.100;13.998;2022-11-10T05:29:34;6.05;;;1.10;;
14076;SDS011;7114;51.100;13.998;2022-11-10T05:32:03;8.07;;;1.10;;
14076;SDS011;7114;51.100;13.998;2022-11-10T05:34:30;7.20;;;1.15;;
14076;SDS011;7114;51.100;13.998;2022-11-10T05:36:56;7.93;;;1.40;;
14076;SDS011;7114;51.100;13.998;2022-11-10T05:39:22;5.03;;;1.00;;
14076;SDS011;7114;51.100;13.998;2022-11-10T05:41:48;9.18;;;1.40;;
14076;SDS011;7114;51.100;13.998;2022-11-10T05:44:16;6.47;;;1.25;;
14076;SDS011;7114;51.100;13.998;2022-11-10T05:46:42;7.65;;;1.25;;
14076;SDS011;7114;51.100;13.998;2022-11-10T05:49:08;7.27;;;1.33;;
14076;SDS011;7114;51.100;13.998;2022-11-10T05:51:35;7.78;;;1.70;;
14076;SDS011;7114;51.100;13.998;2022-11-10T05:54:01;8.50;;;1.27;;
14076;SDS011;7114;51.100;13.998;2022-11-10T05:56:27;5.95;;;1.08;;
14076;SDS011;7114;51.100;13.998;2022-11-10T05:58:53;6.72;;;1.10;;
14076;SDS011;7114;51.100;13.998;2022-11-10T06:01:21;7.40;;;1.10;;
14076;SDS011;7114;51.100;13.998;2022-11-10T06:03:47;6.75;;;1.15;;
14076;SDS011;7114;51.100;13.998;2022-11-10T06:06:13;9.32;;;1.58;;
14076;SDS011;7114;51.100;13.998;2022-11-10T06:08:40;6.97;;;1.20;;
14076;SDS011;7114;51.100;13.998;2022-11-10T06:11:06;8.07;;;1.20;;
14076;SDS011;7114;51.100;13.998;2022-11-10T06:13:32;6.37;;;1.13;;
14076;SDS011;7114;51.100;13.998;2022-11-10T06:15:58;6.13;;;1.08;;
14076;SDS011;7114;51.100;13.998;2022-11-10T06:18:26;7.10;;;0.90;;
14076;SDS011;7114;51.100;13.998;2022-11-10T06:20:52;7.30;;;1.20;;
14076;SDS011;7114;51.100;13.998;2022-11-10T06:23:18;9.02;;;1.45;;
14076;SDS011;7114;51.100;13.998;2022-11-10T06:25:45;6.43;;;1.10;;
14076;SDS011;7114;51.100;13.998;2022-11-10T06:28:11;8.02;;;1.48;;
14076;SDS011;7114;51.100;13.998;2022-11-10T06:30:38;8.50;;;1.00;;
14076;SDS011;7114;51.100;13.998;2022-11-10T06:33:05;5.32;;;1.10;;
14076;SDS011;7114;51.100;13.998;2022-11-10T06:35:32;6.15;;;1.30;;
14076;SDS011;7114;51.100;13.998;2022-11-10T06:37:59;6.97;;;1.00;;
14076;SDS011;7114;51.100;13.998;2022-11-10T06:40:25;7.70;;;1.38;;
14076;SDS011;7114;51.100;13.998;2022-11-10T06:42:52;7.45;;;1.25;;
14076;SDS011;7114;51.100;13.998;2022-11-10T06:45:18;7.40;;;1.30;;
14076;SDS011;7114;51.100;13.998;2022-11-10T06:47:44;5.90;;;1.20;;
14076;SDS011;7114;51.100;13.998;2022-11-10T06:50:11;8.23;;;1.10;;
14076;SDS011;7114;51.100;13.998;2022-11-10T06:52:38;6.13;;;1.20;;
14076;SDS011;7114;51.100;13.998;2022-11-10T06:55:05;5.68;;;1.00;;
14076;SDS011;7114;51.100;13.998;2022-11-10T06:57:35;6.93;;;1.05;;
14076;SDS011;7114;51.100;13.998;2022-11-10T07:00:02;9.88;;;1.20;;
14076;SDS011;7114;51.100;13.998;2022-11-10T07:02:29;8.60;;;1.63;;
14076;SDS011;7114;51.100;13.998;2022-11-10T07:04:55;6.65;;;1.30;;
14076;SDS011;7114;51.100;13.998;2022-11-10T07:07:21;8.85;;;1.45;;
14076;SDS011;7114;51.100;13.998;2022-11-10T07:09:49;8.13;;;1.30;;
14076;SDS011;7114;51.100;13.998;2022-11-10T07:12:15;7.47;;;1.20;;
14076;SDS011;7114;51.100;13.998;2022-11-10T07:14:41;8.70;;;1.40;;
14076;SDS011;7114;51.100;13.998;2022-11-10T07:17:07;5.95;;;0.90;;
14076;SDS011;7114;51.100;13.998;2022-11-10T07:19:34;9.25;;;1.23;;
14076;SDS011;7114;51.100;13.998;2022-11-10T07:22:00;9.27;;;2.20;;
14076;SDS011;7114;51.100;13.998;2022-11-10T07:24:26;7.68;;;2.13;;
14076;SDS011;7114;51.100;13.998;2022-11-10T07:26:55;8.33;;;2.10;;
14076;SDS011;7114;51.100;13.998;2022-11-10T07:29:22;9.05;;;1.77;;
14076;SDS011;7114;51.100;13.998;2022-11-10T07:31:48;6.32;;;1.50;;
14076;SDS011;7114;51.100;13.998;2022-11-10T07:34:14;6.32;;;1.38;;
14076;SDS011;7114;51.100;13.998;2022-11-10T07:36:40;6.38;;;1.00;;
14076;SDS011;7114;51.100;13.998;2022-11-10T07:39:07;7.90;;;1.30;;
14076;SDS011;7114;51.100;13.998;2022-11-10T07:41:33;6.72;;;1.00;;
14076;SDS011;7114;51.100;13.998;2022-11-10T07:44:01;6.82;;;1.25;;
14076;SDS011;7114;51.100;13.998;2022-11-10T07:46:27;6.90;;;1.00;;
14076;SDS011;7114;51.100;13.998;2022-11-10T07:48:53;6.45;;;1.27;;
14076;SDS011;7114;51.100;13.998;2022-11-10T07:51:19;8.53;;;1.20;;
14076;SDS011;7114;51.100;13.998;2022-11-10T07:53:46;6.68;;;0.88;;
14076;SDS011;7114;51.100;13.998;2022-11-10T07:56:12;6.75;;;0.95;;
14076;SDS011;7114;51.100;13.998;2022-11-10T07:58:38;6.65;;;0.88;;
14076;SDS011;7114;51.100;13.998;2022-11-10T08:01:06;5.50;;;0.90;;
14076;SDS011;7114;51.100;13.998;2022-11-10T08:03:32;6.13;;;1.00;;
14076;SDS011;7114;51.100;13.998;2022-11-10T08:05:58;7.13;;;1.00;;
14076;SDS011;7114;51.100;13.998;2022-11-10T08:08:25;6.40;;;1.00;;
14076;SDS011;7114;51.100;13.998;2022-11-10T08:10:51;6.95;;;1.02;;
14076;SDS011;7114;51.100;13.998;2022-11-10T08:13:17;8.18;;;1.25;;
14076;SDS011;7114;51.100;13.998;2022-11-10T08:15:43;5.90;;;0.90;;
14076;SDS011;7114;51.100;13.998;2022-11-10T08:18:14;6.95;;;1.08;;
14076;SDS011;7114;51.100;13.998;2022-11-10T08:20:40;6.93;;;0.93;;
14076;SDS011;7114;51.100;13.998;2022-11-10T08:23:07;6.53;;;0.90;;
14076;SDS011;7114;51.100;13.998;2022-11-10T08:25:34;6.78;;;0.85;;
14076;SDS011;7114;51.100;13.998;2022-11-10T08:28:01;5.70;;;0.90;;
14076;SDS011;7114;51.100;13.998;2022-11-10T08:30:27;6.70;;;1.05;;
14076;SDS011;7114;51.100;13.998;2022-11-10T08:32:54;7.22;;;1.10;;
14076;SDS011;7114;51.100;13.998;2022-11-10T08:35:24;8.20;;;1.10;;
14076;SDS011;7114;51.100;13.998;2022-11-10T08:37:51;6.38;;;0.82;;
14076;SDS011;7114;51.100;13.998;2022-11-10T08:40:17;5.97;;;0.83;;
14076;SDS011;7114;51.100;13.998;2022-11-10T08:42:44;5.93;;;1.05;;
14076;SDS011;7114;51.100;13.998;2022-11-10T08:45:10;5.28;;;0.90;;
14076;SDS011;7114;51.100;13.998;2022-11-10T08:47:36;5.55;;;0.70;;
14076;SDS011;7114;51.100;13.998;2022-11-10T08:50:03;6.68;;;1.10;;
14076;SDS011;7114;51.100;13.998;2022-11-10T08:52:30;6.03;;;0.90;;
14076;SDS011;7114;51.100;13.998;2022-11-10T08:54:56;8.82;;;1.30;;
14076;SDS011;7114;51.100;13.998;2022-11-10T08:57:23;16.85;;;1.83;;
14076;SDS011;7114;51.100;13.998;2022-11-10T08:59:49;9.52;;;1.70;;
14076;SDS011;7114;51.100;13.998;2022-11-10T09:02:15;8.98;;;1.90;;
14076;SDS011;7114;51.100;13.998;2022-11-10T09:04:41;10.67;;;1.60;;
14076;SDS011;7114;51.100;13.998;2022-11-10T09:07:08;6.32;;;1.30;;
14076;SDS011;7114;51.100;13.998;2022-11-10T09:09:35;7.20;;;1.60;;
14076;SDS011;7114;51.100;13.998;2022-11-10T09:12:02;8.75;;;1.80;;
14076;SDS011;7114;51.100;13.998;2022-11-10T09:14:28;7.75;;;1.10;;
14076;SDS011;7114;51.100;13.998;2022-11-10T09:16:54;8.33;;;1.10;;
14076;SDS011;7114;51.100;13.998;2022-11-10T09:19:20;6.38;;;1.10;;
14076;SDS011;7114;51.100;13.998;2022-11-10T09:21:47;6.47;;;1.10;;
14076;SDS011;7114;51.100;13.998;2022-11-10T09:24:13;7.88;;;1.10;;
14076;SDS011;7114;51.100;13.998;2022-11-10T09:26:40;7.38;;;1.30;;
14076;SDS011;7114;51.100;13.998;2022-11-10T09:29:09;5.37;;;0.80;;
14076;SDS011;7114;51.100;13.998;2022-11-10T09:31:35;8.57;;;0.90;;
14076;SDS011;7114;51.100;13.998;2022-11-10T09:34:01;5.47;;;1.00;;
14076;SDS011;7114;51.100;13.998;2022-11-10T09:36:28;6.20;;;1.00;;
14076;SDS011;7114;51.100;13.998;2022-11-10T09:38:55;6.25;;;1.00;;
14076;SDS011;7114;51.100;13.998;2022-11-10T09:41:21;5.10;;;0.70;;
14076;SDS011;7114;51.100;13.998;2022-11-10T09:43:50;8.40;;;1.15;;
14076;SDS011;7114;51.100;13.998;2022-11-10T09:46:22;6.72;;;1.17;;
14076;SDS011;7114;51.100;13.998;2022-11-10T09:48:50;5.80;;;0.90;;
14076;SDS011;7114;51.100;13.998;2022-11-10T09:51:18;8.07;;;1.08;;
14076;SDS011;7114;51.100;13.998;2022-11-10T09:53:46;8.10;;;0.87;;
14076;SDS011;7114;51.100;13.998;2022-11-10T09:56:15;8.80;;;1.10;;
14076;SDS011;7114;51.100;13.998;2022-11-10T09:58:43;6.10;;;0.90;;
14076;SDS011;7114;51.100;13.998;2022-11-10T10:01:14;8.63;;;0.93;;
14076;SDS011;7114;51.100;13.998;2022-11-10T10:03:44;9.10;;;1.10;;
14076;SDS011;7114;51.100;13.998;2022-11-10T10:06:11;7.30;;;0.90;;
14076;SDS011;7114;51.100;13.998;2022-11-10T10:08:41;7.65;;;1.00;;
14076;SDS011;7114;51.100;13.998;2022-11-10T10:11:12;7.03;;;0.95;;
14076;SDS011;7114;51.100;13.998;2022-11-10T10:13:58;6.70;;;0.90;;
14076;SDS011;7114;51.100;13.998;2022-11-10T10:16:31;6.35;;;1.13;;
14076;SDS011;7114;51.100;13.998;2022-11-10T10:19:01;7.70;;;1.00;;
14076;SDS011;7114;51.100;13.998;2022-11-10T10:21:34;6.85;;;0.80;;
14076;SDS011;7114;51.100;13.998;2022-11-10T10:24:03;9.70;;;0.98;;
14076;SDS011;7114;51.100;13.998;2022-11-10T10:26:31;5.25;;;0.63;;
14076;SDS011;7114;51.100;13.998;2022-11-10T10:29:00;9.73;;;1.00;;
14076;SDS011;7114;51.100;13.998;2022-11-10T10:31:30;7.33;;;0.90;;
14076;SDS011;7114;51.100;13.998;2022-11-10T10:33:59;8.30;;;1.05;;
14076;SDS011;7114;51.100;13.998;2022-11-10T10:36:26;8.77;;;0.95;;
14076;SDS011;7114;51.100;13.998;2022-11-10T10:38:53;5.63;;;0.75;;
14076;SDS011;7114;51.100;13.998;2022-11-10T10:41:22;5.82;;;0.77;;
14076;SDS011;7114;51.100;13.998;2022-11-10T10:43:49;7.63;;;1.00;;
14076;SDS011;7114;51.100;13.998;2022-11-10T10:46:17;6.00;;;0.90;;
14076;SDS011;7114;51.100;13.998;2022-11-10T10:48:48;7.82;;;1.02;;
14076;SDS011;7114;51.100;13.998;2022-11-10T10:51:31;7.20;;;1.08;;
14076;SDS011;7114;51.100;13.998;2022-11-10T10:53:58;6.80;;;1.10;;
14076;SDS011;7114;51.100;13.998;2022-11-10T10:56:25;7.37;;;0.93;;
14076;SDS011;7114;51.100;13.998;2022-11-10T10:58:53;6.45;;;1.05;;
14076;SDS011;7114;51.100;13.998;2022-11-10T11:01:23;8.27;;;1.20;;
14076;SDS011;7114;51.100;13.998;2022-11-10T11:03:51;8.25;;;1.45;;
14076;SDS011;7114;51.100;13.998;2022-11-10T11:06:18;6.05;;;1.40;;
14076;SDS011;7114;51.100;13.998;2022-11-10T11:08:54;8.87;;;1.57;;
14076;SDS011;7114;51.100;13.998;2022-11-10T11:11:22;9.57;;;1.48;;
14076;SDS011;7114;51.100;13.998;2022-11-10T11:13:49;7.88;;;1.50;;
14076;SDS011;7114;51.100;13.998;2022-11-10T11:16:15;6.55;;;1.17;;
14076;SDS011;7114;51.100;13.998;2022-11-10T11:18:41;7.60;;;1.33;;
14076;SDS011;7114;51.100;13.998;2022-11-10T11:21:09;11.10;;;1.60;;
14076;SDS011;7114;51.100;13.998;2022-11-10T11:23:41;8.68;;;1.05;;
14076;SDS011;7114;51.100;13.998;2022-11-10T11:26:14;6.25;;;1.30;;
14076;SDS011;7114;51.100;13.998;2022-11-10T11:28:43;6.65;;;1.10;;
14076;SDS011;7114;51.100;13.998;2022-11-10T11:31:13;7.15;;;1.10;;
14076;SDS011;7114;51.100;13.998;2022-11-10T11:33:43;7.57;;;1.23;;
14076;SDS011;7114;51.100;13.998;2022-11-10T11:36:13;6.00;;;1.20;;
14076;SDS011;7114;51.100;13.998;2022-11-10T11:38:43;8.00;;;1.27;;
14076;SDS011;7114;51.100;13.998;2022-11-10T11:41:18;7.43;;;1.00;;
14076;SDS011;7114;51.100;13.998;2022-11-10T11:43:52;7.50;;;1.10;;
14076;SDS011;7114;51.100;13.998;2022-11-10T11:46:26;6.37;;;1.10;;
14076;SDS011;7114;51.100;13.998;2022-11-10T11:48:57;5.95;;;1.05;;
14076;SDS011;7114;51.100;13.998;2022-11-10T11:51:29;7.15;;;1.10;;
14076;SDS011;7114;51.100;13.998;2022-11-10T11:54:01;7.13;;;1.00;;
14076;SDS011;7114;51.100;13.998;2022-11-10T11:56:32;6.55;;;0.95;;
14076;SDS011;7114;51.100;13.998;2022-11-10T11:59:02;6.00;;;0.90;;
14076;SDS011;7114;51.100;13.998;2022-11-10T12:01:39;8.80;;;1.23;;
14076;SDS011;7114;51.100;13.998;2022-11-10T12:04:20;5.10;;;0.90;;
14076;SDS011;7114;51.100;13.998;2022-11-10T12:06:52;6.97;;;0.95;;
14076;SDS011;7114;51.100;13.998;2022-11-10T12:09:24;7.20;;;1.25;;
14076;SDS011;7114;51.100;13.998;2022-11-10T12:11:58;7.50;;;1.07;;
14076;SDS011;7114;51.100;13.998;2022-11-10T12:14:30;7.72;;;1.17;;
14076;SDS011;7114;51.100;13.998;2022-11-10T12:16:59;9.05;;;1.02;;
14076;SDS011;7114;51.100;13.998;2022-11-10T12:19:30;5.45;;;0.80;;
14076;SDS011;7114;51.100;13.998;2022-11-10T12:21:58;8.30;;;1.10;;
14076;SDS011;7114;51.100;13.998;2022-11-10T12:24:34;8.70;;;0.90;;
14076;SDS011;7114;51.100;13.998;2022-11-10T12:27:06;6.63;;;0.82;;
14076;SDS011;7114;51.100;13.998;2022-11-10T12:29:34;8.20;;;0.95;;
14076;SDS011;7114;51.100;13.998;2022-11-10T12:32:04;8.18;;;1.27;;
14076;SDS011;7114;51.100;13.998;2022-11-10T12:34:32;7.00;;;1.05;;
14076;SDS011;7114;51.100;13.998;2022-11-10T12:37:03;6.67;;;0.80;;
14076;SDS011;7114;51.100;13.998;2022-11-10T12:39:35;5.95;;;0.80;;
14076;SDS011;7114;51.100;13.998;2022-11-10T12:42:04;7.80;;;0.93;;
14076;SDS011;7114;51.100;13.998;2022-11-10T12:44:34;10.13;;;0.80;;
14076;SDS011;7114;51.100;13.998;2022-11-10T12:47:02;7.40;;;1.08;;
14076;SDS011;7114;51.100;13.998;2022-11-10T12:49:31;10.33;;;1.43;;
14076;SDS011;7114;51.100;13.998;2022-11-10T12:52:00;7.90;;;1.20;;
14076;SDS011;7114;51.100;13.998;2022-11-10T12:54:27;7.85;;;1.00;;
14076;SDS011;7114;51.100;13.998;2022-11-10T12:56:55;6.05;;;1.20;;
14076;SDS011;7114;51.100;13.998;2022-11-10T12:59:29;7.60;;;1.20;;
14076;SDS011;7114;51.100;13.998;2022-11-10T13:01:57;8.10;;;1.10;;
14076;SDS011;7114;51.100;13.998;2022-11-10T13:04:24;7.07;;;1.30;;
14076;SDS011;7114;51.100;13.998;2022-11-10T13:06:50;6.70;;;1.00;;
14076;SDS011;7114;51.100;13.998;2022-11-10T13:09:21;7.13;;;1.10;;
14076;SDS011;7114;51.100;13.998;2022-11-10T13:12:01;6.60;;;1.00;;
14076;SDS011;7114;51.100;13.998;2022-11-10T13:14:30;5.60;;;1.23;;
14076;SDS011;7114;51.100;13.998;2022-11-10T13:16:57;8.43;;;0.93;;
14076;SDS011;7114;51.100;13.998;2022-11-10T13:22:07;5.55;;;0.77;;
14076;SDS011;7114;51.100;13.998;2022-11-10T13:24:34;6.50;;;1.40;;
14076;SDS011;7114;51.100;13.998;2022-11-10T13:27:01;8.57;;;1.13;;
14076;SDS011;7114;51.100;13.998;2022-11-10T13:29:33;6.22;;;1.00;;
14076;SDS011;7114;51.100;13.998;2022-11-10T13:34:45;8.45;;;0.90;;
14076;SDS011;7114;51.100;13.998;2022-11-10T13:42:37;7.10;;;0.88;;
14076;SDS011;7114;51.100;13.998;2022-11-10T13:45:26;6.90;;;0.95;;
14076;SDS011;7114;51.100;13.998;2022-11-10T13:47:53;7.28;;;1.00;;
14076;SDS011;7114;51.100;13.998;2022-11-10T13:50:26;6.90;;;1.10;;
14076;SDS011;7114;51.100;13.998;2022-11-10T13:52:57;10.03;;;1.30;;
14076;SDS011;7114;51.100;13.998;2022-11-10T13:55:30;5.85;;;1.20;;
14076;SDS011;7114;51.100;13.998;2022-11-10T13:58:00;6.75;;;1.42;;
14076;SDS011;7114;51.100;13.998;2022-11-10T14:00:29;6.47;;;0.98;;
14076;SDS011;7114;51.100;13.998;2022-11-10T14:02:56;5.85;;;0.82;;
14076;SDS011;7114;51.100;13.998;2022-11-10T14:08:21;8.45;;;0.90;;
14076;SDS011;7114;51.100;13.998;2022-11-10T14:10:49;5.38;;;1.00;;
14076;SDS011;7114;51.100;13.998;2022-11-10T14:13:18;6.53;;;0.90;;
14076;SDS011;7114;51.100;13.998;2022-11-10T14:15:47;6.50;;;0.90;;
14076;SDS011;7114;51.100;13.998;2022-11-10T14:18:15;6.30;;;1.00;;
14076;SDS011;7114;51.100;13.998;2022-11-10T14:20:44;7.90;;;1.50;;
14076;SDS011;7114;51.100;13.998;2022-11-10T14:23:12;8.35;;;1.30;;
14076;SDS011;7114;51.100;13.998;2022-11-10T14:25:41;7.10;;;1.35;;
14076;SDS011;7114;51.100;13.998;2022-11-10T14:28:21;7.07;;;1.10;;
14076;SDS011;7114;51.100;13.998;2022-11-10T14:30:50;9.80;;;2.13;;
14076;SDS011;7114;51.100;13.998;2022-11-10T14:33:17;6.80;;;1.75;;
14076;SDS011;7114;51.100;13.998;2022-11-10T14:35:44;8.73;;;2.42;;
14076;SDS011;7114;51.100;13.998;2022-11-10T14:38:14;7.13;;;1.80;;
14076;SDS011;7114;51.100;13.998;2022-11-10T14:40:41;7.38;;;1.45;;
14076;SDS011;7114;51.100;13.998;2022-11-10T14:43:22;7.73;;;1.70;;
14076;SDS011;7114;51.100;13.998;2022-11-10T14:45:49;7.68;;;1.67;;
14076;SDS011;7114;51.100;13.998;2022-11-10T14:48:17;8.85;;;2.38;;
14076;SDS011;7114;51.100;13.998;2022-11-10T14:50:44;7.00;;;2.08;;
14076;SDS011;7114;51.100;13.998;2022-11-10T14:53:11;7.75;;;2.13;;
14076;SDS011;7114;51.100;13.998;2022-11-10T14:55:41;6.93;;;2.33;;
14076;SDS011;7114;51.100;13.998;2022-11-10T14:58:10;10.50;;;1.98;;
14076;SDS011;7114;51.100;13.998;2022-11-10T15:00:38;8.73;;;2.50;;
14076;SDS011;7114;51.100;13.998;2022-11-10T15:03:05;7.68;;;1.95;;